Hlavní strana
METAR-TAF:

METAR-TAF

Letiště :

Cartersville Airport

Cartersville, Georgie, Spojené státy americké

zeměpisná šířka: 34-07-42N, zeměpisná délka: 084-50-50W, výška: 233 m

Aktuální stav počasí

Zpráva byla vytvořena před 7 minutami, v 10:53 UTC
Bezvětří
Teplota 19°C
Vlhkost vzduchu 100%
Tlak 1022 hPa
Viditelnost: 8.0 km
Jasno
kouřmo

METAR: KVPC 241053Z AUTO 00000KT 5SM BR CLR 19/19 A3017 RMK AO2 SLP204 T01940189

Čas: 07:00 (11:00 UTC)


TAF: chybějící

Stav a předpovědi počasí z více než 4 000 letišť (zprávy METAR a TAF).

Červené a žluté tečky na mapě představují dostupné meteorologické stanice.

Když kurzor umístíte na tečku, zobrazí se název stanice.

Pak kliknutím zobrazíte stav a předpověď počasí.

Chcete-li změnit mapu, kliknutím na zelené tlačítko se znaménkem +mapu přiblížíte, kliknutím na zelené tlačítko se znaménkem – mapu oddálíte a kliknutím na zelené šipky přejdete na sousední mapy.


METAR-TAF: